Independence of the Seas — C6WW4 — position and weather

sailwx.info

Track history (hours):
 
Tides and Currents Weather Stations Pressure Air Temp Water Temp Dewpoint Dewpoint Depression Visibility Wind Speed Wind Dir Waves Ship Positions

Independence of the Seas

Last reported at 2014-Aug-30 04:33 UTC. Time now 2014-Aug-30 16:29 UTC.
Position N 41°13' E 002°09'.

Length 339 m; draft 8.8 m.

Type: Passenger vessel. MMSI: 309374000.

Date/timePositionNaut miles runAvg speedWind from/ knotsBaromVisibWave heightAir tempDewpointWater temp
2014-Aug-30 04:33N 41°13' E 002°09'1312.9
2014-Aug-30 03:33N 41°02' E 002°00'1312.5
2014-Aug-30 02:32N 40°53' E 001°48'1212.3
2014-Aug-30 01:33N 40°45' E 001°36'1212.3
2014-Aug-30 00:33N 40°37' E 001°24'1212.3
2014-Aug-29 23:33N 40°28' E 001°12'1212.5
2014-Aug-29 22:33N 40°20' E 001°01'1814.5
2014-Aug-29 21:18N 40°08' E 000°43'7 9.5
2014-Aug-29 20:33N 40°03' E 000°36'5012.4
2014-Aug-29 16:31N 39°29' W 000°12'5 0.5
2014-Aug-29 05:31N 39°27' W 000°18'5617.3
2014-Aug-29 02:17N 38°43' E 000°27'4220.1
2014-Aug-29 00:11N 38°07' W 000°01'3320.0
2014-Aug-28 22:33N 37°40' W 000°24'2020.0
2014-Aug-28 21:33N 37°25' W 000°42'2119.6
2014-Aug-28 20:30N 37°12' W 001°02'1819.2
2014-Aug-28 19:33N 37°00' W 001°19'1919.4
2014-Aug-28 18:33N 36°46' W 001°36'30819.2
2014-Aug-28 02:33N 36°18' W 007°57'4320.1
2014-Aug-28 00:25N 36°28' W 008°49'2220.5
2014-Aug-27 23:22N 36°34' W 009°15'1619.7
2014-Aug-27 22:33N 36°45' W 009°29'10519.4
2014-Aug-27 17:08N 38°30' W 009°24'1117.6
2014-Aug-27 16:31N 38°40' W 009°19'7 6.9
2014-Aug-27 15:33N 38°42' W 009°10'0 0.0
2014-Aug-27 14:33N 38°42' W 009°10'0 0.0
2014-Aug-27 13:33N 38°42' W 009°10'0 0.0
2014-Aug-27 12:33N 38°42' W 009°10'0 0.0
2014-Aug-27 11:33N 38°42' W 009°10'0 0.0
2014-Aug-27 10:30N 38°42' W 009°10'0 0.0
2014-Aug-27 09:33N 38°42' W 009°10'0 0.0
2014-Aug-27 08:33N 38°42' W 009°10'0 0.0
2014-Aug-27 07:33N 38°42' W 009°10'6 5.8
2014-Aug-27 06:34N 38°41' W 009°18'1615.8
2014-Aug-27 05:33N 38°38' W 009°38'  
2014-Aug-23 20:29N 50°26' W 001°23'1310.8
2014-Aug-23 19:18N 50°32' W 001°05'23 1.5
2014-Aug-23 03:34N 50°52' W 001°23'9 9.0
2014-Aug-23 02:33N 50°46' W 001°13'1212.2
2014-Aug-23 01:33N 50°37' W 000°59'  
2014-Aug-20 16:18N 38°38' W 009°22'1013.0
2014-Aug-20 15:33N 38°42' W 009°11'0 0.2
2014-Aug-20 14:29N 38°42' W 009°10'0 0.0
2014-Aug-20 13:32N 38°42' W 009°10'0 0.0
2014-Aug-20 12:32N 38°42' W 009°10'0 0.0
2014-Aug-20 11:32N 38°42' W 009°10'0 0.0
2014-Aug-20 10:32N 38°42' W 009°10'0 0.0
2014-Aug-20 09:32N 38°42' W 009°10'0 0.0
2014-Aug-20 08:32N 38°42' W 009°10'0 0.0
2014-Aug-20 07:32N 38°42' W 009°10'0 0.5
2014-Aug-20 06:34N 38°42' W 009°10'1313.3
2014-Aug-20 05:33N 38°34' W 009°24'  
Track history (hours):
 
Tides and Currents Weather Stations Pressure Air Temp Water Temp Dewpoint Dewpoint Depression Visibility Wind Speed Wind Dir Waves Ship Positions

Independence of the Seas

Last reported at 2014-Aug-30 04:33 UTC. Time now 2014-Aug-30 16:29 UTC.
Position N 41°13' E 002°09'.

Length 339 m; draft 8.8 m.

Type: Passenger vessel. MMSI: 309374000.

Date/timePositionNaut miles runAvg speedWind from/ knotsBaromVisibWave heightAir tempDewpointWater temp
2014-Aug-30 04:33N 41°13' E 002°09'1312.9
2014-Aug-30 03:33N 41°02' E 002°00'1312.5
2014-Aug-30 02:32N 40°53' E 001°48'1212.3
2014-Aug-30 01:33N 40°45' E 001°36'1212.3
2014-Aug-30 00:33N 40°37' E 001°24'1212.3
2014-Aug-29 23:33N 40°28' E 001°12'1212.5
2014-Aug-29 22:33N 40°20' E 001°01'1814.5
2014-Aug-29 21:18N 40°08' E 000°43'7 9.5
2014-Aug-29 20:33N 40°03' E 000°36'5012.4
2014-Aug-29 16:31N 39°29' W 000°12'5 0.5
2014-Aug-29 05:31N 39°27' W 000°18'5617.3
2014-Aug-29 02:17N 38°43' E 000°27'4220.1
2014-Aug-29 00:11N 38°07' W 000°01'3320.0
2014-Aug-28 22:33N 37°40' W 000°24'2020.0
2014-Aug-28 21:33N 37°25' W 000°42'2119.6
2014-Aug-28 20:30N 37°12' W 001°02'1819.2
2014-Aug-28 19:33N 37°00' W 001°19'1919.4
2014-Aug-28 18:33N 36°46' W 001°36'30819.2
2014-Aug-28 02:33N 36°18' W 007°57'4320.1
2014-Aug-28 00:25N 36°28' W 008°49'2220.5
2014-Aug-27 23:22N 36°34' W 009°15'1619.7
2014-Aug-27 22:33N 36°45' W 009°29'10519.4
2014-Aug-27 17:08N 38°30' W 009°24'1117.6
2014-Aug-27 16:31N 38°40' W 009°19'7 6.9
2014-Aug-27 15:33N 38°42' W 009°10'0 0.0
2014-Aug-27 14:33N 38°42' W 009°10'0 0.0
2014-Aug-27 13:33N 38°42' W 009°10'0 0.0
2014-Aug-27 12:33N 38°42' W 009°10'0 0.0
2014-Aug-27 11:33N 38°42' W 009°10'0 0.0
2014-Aug-27 10:30N 38°42' W 009°10'0 0.0
2014-Aug-27 09:33N 38°42' W 009°10'0 0.0
2014-Aug-27 08:33N 38°42' W 009°10'0 0.0
2014-Aug-27 07:33N 38°42' W 009°10'6 5.8
2014-Aug-27 06:34N 38°41' W 009°18'1615.8
2014-Aug-27 05:33N 38°38' W 009°38'  
2014-Aug-23 20:29N 50°26' W 001°23'1310.8
2014-Aug-23 19:18N 50°32' W 001°05'23 1.5
2014-Aug-23 03:34N 50°52' W 001°23'9 9.0
2014-Aug-23 02:33N 50°46' W 001°13'1212.2
2014-Aug-23 01:33N 50°37' W 000°59'  
2014-Aug-20 16:18N 38°38' W 009°22'1013.0
2014-Aug-20 15:33N 38°42' W 009°11'0 0.2
2014-Aug-20 14:29N 38°42' W 009°10'0 0.0
2014-Aug-20 13:32N 38°42' W 009°10'0 0.0
2014-Aug-20 12:32N 38°42' W 009°10'0 0.0
2014-Aug-20 11:32N 38°42' W 009°10'0 0.0
2014-Aug-20 10:32N 38°42' W 009°10'0 0.0
2014-Aug-20 09:32N 38°42' W 009°10'0 0.0
2014-Aug-20 08:32N 38°42' W 009°10'0 0.0
2014-Aug-20 07:32N 38°42' W 009°10'0 0.5
2014-Aug-20 06:34N 38°42' W 009°10'1313.3
2014-Aug-20 05:33N 38°34' W 009°24'  

Dump ship's entire track history